createdAt,value
2023-01-03T00:00:11.076Z,91.55
2023-01-03T00:03:17.124Z,83.70
2023-01-03T00:06:28.715Z,85.95
2023-01-03T00:09:30.844Z,89.40
2023-01-03T00:12:33.205Z,78.55
2023-01-03T00:15:36.581Z,75.93
2023-01-03T00:18:38.638Z,80.80
2023-01-03T00:21:42.041Z,82.80
2023-01-03T00:24:45.532Z,82.35
2023-01-03T00:27:47.754Z,86.20
2023-01-03T00:30:49.911Z,96.82
2023-01-03T00:33:52.733Z,86.10
2023-01-03T00:36:55.006Z,81.00
2023-01-03T00:39:57.002Z,82.95
2023-01-03T00:43:17.817Z,85.65
2023-01-03T00:46:21.405Z,75.43
2023-01-03T00:49:23.751Z,78.45
2023-01-03T00:52:25.853Z,85.82
2023-01-03T00:55:27.838Z,88.38
2023-01-03T00:58:33.665Z,89.70
2023-01-03T01:01:46.290Z,84.53
2023-01-03T01:04:49.342Z,80.95
2023-01-03T01:07:51.476Z,85.93
2023-01-03T01:11:02.949Z,87.38
2023-01-03T01:14:20.049Z,83.30
2023-01-03T01:17:23.044Z,81.05
2023-01-03T01:20:25.334Z,82.32
2023-01-03T01:23:27.418Z,74.32
2023-01-03T01:26:29.612Z,73.22
2023-01-03T01:29:31.677Z,76.95
2023-01-03T01:32:33.991Z,72.72
2023-01-03T01:35:35.996Z,70.45
2023-01-03T01:38:38.104Z,83.22
2023-01-03T01:41:59.346Z,73.57
2023-01-03T01:45:03.670Z,69.93
2023-01-03T01:48:13.309Z,80.93
2023-01-03T01:51:15.821Z,68.13
2023-01-03T01:54:18.962Z,75.18
2023-01-03T01:57:24.573Z,74.63
2023-01-03T02:00:27.148Z,72.22
2023-01-03T02:03:29.355Z,71.75
2023-01-03T02:06:33.006Z,75.57
2023-01-03T02:09:35.696Z,66.68
2023-01-03T02:13:08.614Z,71.05
2023-01-03T02:16:28.744Z,66.97
2023-01-03T02:19:58.768Z,63.08
2023-01-03T02:23:33.483Z,64.68
2023-01-03T02:27:12.434Z,69.20
2023-01-03T02:30:35.226Z,68.55
2023-01-03T02:33:51.194Z,71.18
2023-01-03T02:37:02.099Z,68.55
2023-01-03T02:40:18.483Z,72.03
2023-01-03T02:43:38.302Z,67.40
2023-01-03T02:46:47.620Z,59.63
2023-01-03T02:49:53.048Z,69.53
2023-01-03T02:53:02.261Z,70.75
2023-01-03T02:56:12.388Z,64.82
2023-01-03T02:59:18.733Z,63.08
2023-01-03T03:02:26.519Z,65.72
2023-01-03T03:05:37.143Z,60.20
2023-01-03T03:08:39.950Z,57.28
2023-01-03T03:12:03.598Z,60.90
2023-01-03T03:15:06.808Z,53.65
2023-01-03T03:18:15.750Z,58.00
2023-01-03T03:21:39.763Z,58.55
2023-01-03T03:24:51.019Z,62.50
2023-01-03T03:28:17.231Z,54.63
2023-01-03T03:31:49.957Z,55.90
2023-01-03T03:34:55.386Z,62.33
2023-01-03T03:38:00.322Z,63.35
2023-01-03T03:42:06.838Z,65.80
2023-01-03T03:45:27.014Z,71.78
2023-01-03T03:48:57.119Z,63.08
2023-01-03T03:52:02.735Z,65.28
2023-01-03T03:55:13.934Z,68.70
2023-01-03T03:58:22.232Z,75.25
2023-01-03T04:01:27.138Z,69.65
2023-01-03T04:04:47.764Z,81.68
2023-01-03T04:07:50.079Z,73.85
2023-01-03T04:10:52.913Z,74.25
2023-01-03T04:13:54.995Z,74.40
2023-01-03T04:16:57.093Z,80.78
2023-01-03T04:19:59.324Z,67.70
2023-01-03T04:23:01.511Z,72.90
2023-01-03T04:26:03.629Z,75.72
2023-01-03T04:29:06.712Z,73.97
2023-01-03T04:32:10.088Z,80.35
2023-01-03T04:35:12.283Z,67.93
2023-01-03T04:38:14.461Z,71.97
2023-01-03T04:41:16.910Z,80.00
2023-01-03T04:44:18.983Z,75.70
2023-01-03T04:47:21.147Z,71.80
2023-01-03T04:50:23.367Z,70.82
2023-01-03T04:53:27.605Z,77.43
2023-01-03T04:56:32.046Z,78.43
2023-01-03T04:59:34.340Z,71.40
2023-01-03T05:02:39.010Z,68.85
2023-01-03T05:05:41.625Z,67.60
2023-01-03T05:08:47.431Z,65.95
2023-01-03T05:11:49.675Z,68.15
2023-01-03T05:14:51.776Z,58.83
2023-01-03T05:17:54.023Z,64.20
2023-01-03T05:21:16.012Z,66.35
2023-01-03T05:24:37.984Z,59.65
2023-01-03T05:27:42.040Z,59.25
2023-01-03T05:30:45.204Z,55.50
2023-01-03T05:33:47.325Z,50.67
2023-01-03T05:36:49.424Z,53.22
2023-01-03T05:39:51.578Z,51.55
2023-01-03T05:42:53.611Z,53.75
2023-01-03T05:45:56.472Z,50.22
2023-01-03T05:48:58.913Z,50.53
2023-01-03T05:52:00.964Z,47.92
2023-01-03T05:55:03.029Z,48.35
2023-01-03T05:58:06.440Z,46.97
2023-01-03T06:01:11.857Z,54.42
2023-01-03T06:04:13.941Z,52.75
2023-01-03T06:07:17.850Z,52.97
2023-01-03T06:10:20.019Z,52.00
2023-01-03T06:13:24.043Z,43.08
2023-01-03T06:16:44.881Z,42.95
2023-01-03T06:19:46.968Z,47.28
2023-01-03T06:22:55.330Z,55.33
2023-01-03T06:25:57.948Z,54.53
2023-01-03T06:29:00.316Z,58.45
2023-01-03T06:32:08.633Z,69.45
2023-01-03T06:35:11.767Z,55.10
2023-01-03T06:38:15.538Z,55.63
2023-01-03T06:41:18.573Z,51.30
2023-01-03T06:44:21.004Z,55.38
2023-01-03T06:47:42.166Z,58.65
2023-01-03T06:51:03.547Z,55.42
2023-01-03T06:54:07.581Z,57.08
2023-01-03T06:57:09.733Z,59.15
2023-01-03T07:03:32.797Z,56.70
2023-01-03T07:06:34.993Z,61.75
2023-01-03T07:09:37.300Z,56.42
2023-01-03T07:12:58.180Z,56.45
2023-01-03T07:16:02.529Z,52.40
2023-01-03T07:19:06.766Z,54.83
2023-01-03T07:22:09.002Z,55.15
2023-01-03T07:25:13.937Z,44.92
2023-01-03T07:28:17.443Z,46.72
2023-01-03T07:31:20.401Z,39.75
2023-01-03T07:34:22.463Z,45.78
2023-01-03T07:37:24.520Z,49.00
2023-01-03T07:40:26.960Z,48.35
2023-01-03T07:43:38.183Z,57.33
2023-01-03T07:46:40.322Z,67.55
2023-01-03T07:49:42.478Z,59.88
2023-01-03T07:52:45.638Z,54.63
2023-01-03T07:55:47.874Z,55.30
2023-01-03T07:58:54.220Z,53.33
2023-01-03T08:01:56.333Z,54.33
2023-01-03T08:04:58.584Z,56.90
2023-01-03T08:08:00.585Z,48.95
2023-01-03T08:11:21.446Z,51.25
2023-01-03T08:14:26.706Z,55.40
2023-01-03T08:17:32.147Z,48.67
2023-01-03T08:20:34.575Z,49.97
2023-01-03T08:23:37.058Z,53.80
2023-01-03T08:26:40.818Z,56.80
2023-01-03T08:29:43.150Z,63.10
2023-01-03T08:32:47.107Z,63.05
2023-01-03T08:36:03.444Z,56.85
2023-01-03T08:39:17.104Z,58.83
2023-01-03T08:42:21.248Z,80.10
2023-01-03T08:45:26.827Z,58.38
2023-01-03T08:48:31.381Z,58.25
2023-01-03T08:51:33.594Z,61.08
2023-01-03T08:54:35.719Z,60.20
2023-01-03T08:57:38.176Z,63.47
2023-01-03T09:00:41.352Z,65.15
2023-01-03T09:03:43.624Z,70.40
2023-01-03T09:06:46.513Z,66.20
2023-01-03T09:09:48.928Z,72.82
2023-01-03T09:12:51.955Z,66.80
2023-01-03T09:16:03.657Z,78.30
2023-01-03T09:19:06.197Z,77.32
2023-01-03T09:22:16.123Z,77.53
2023-01-03T09:25:20.060Z,68.18
2023-01-03T09:28:22.445Z,66.32
2023-01-03T09:31:24.617Z,66.10
2023-01-03T09:34:26.965Z,62.70
2023-01-03T09:37:29.017Z,69.45
2023-01-03T09:40:41.117Z,71.32
2023-01-03T09:43:47.934Z,67.60
2023-01-03T09:46:50.022Z,61.45
2023-01-03T09:50:27.643Z,59.42
2023-01-03T09:53:48.990Z,63.92
2023-01-03T09:57:09.830Z,66.85
2023-01-03T10:00:59.181Z,62.42
2023-01-03T10:04:06.873Z,57.15
2023-01-03T10:07:41.861Z,67.82
2023-01-03T10:11:06.927Z,68.20
2023-01-03T10:14:29.110Z,70.75
2023-01-03T10:17:43.512Z,73.78
2023-01-03T10:20:50.701Z,73.97
2023-01-03T10:23:58.423Z,72.75
2023-01-03T10:27:12.212Z,75.65
2023-01-03T10:30:52.345Z,72.20
2023-01-03T10:34:02.101Z,68.78
2023-01-03T10:37:20.050Z,81.90
2023-01-03T10:40:43.750Z,76.47
2023-01-03T10:43:58.209Z,81.38
2023-01-03T10:47:11.047Z,78.22
2023-01-03T10:50:23.490Z,82.88
2023-01-03T10:53:25.538Z,74.45
2023-01-03T10:56:35.896Z,73.85
2023-01-03T10:59:50.211Z,66.47
2023-01-03T11:02:53.843Z,62.40
2023-01-03T11:06:01.873Z,58.38
2023-01-03T11:09:13.647Z,62.25
2023-01-03T11:12:43.219Z,68.32
2023-01-03T11:15:45.303Z,60.75
2023-01-03T11:19:02.632Z,63.08
2023-01-03T11:22:11.969Z,73.60
2023-01-03T11:25:21.347Z,64.55
2023-01-03T11:28:53.827Z,66.80
2023-01-03T11:32:10.755Z,67.65
2023-01-03T11:35:40.280Z,64.32
2023-01-03T11:42:08.940Z,62.83
2023-01-03T11:45:49.342Z,61.30
2023-01-03T11:49:03.393Z,67.95
2023-01-03T11:52:44.346Z,72.05
2023-01-03T11:55:58.200Z,62.72
2023-01-03T11:59:16.205Z,65.03
2023-01-03T12:02:39.780Z,66.85
2023-01-03T12:05:48.828Z,69.97
2023-01-03T12:09:02.828Z,67.05
2023-01-03T12:12:29.493Z,74.30
2023-01-03T12:15:40.338Z,78.80
2023-01-03T12:19:00.603Z,71.13
2023-01-03T12:22:12.505Z,69.70
2023-01-03T12:25:14.642Z,73.63
2023-01-03T12:28:28.505Z,72.85
2023-01-03T12:31:39.607Z,77.85
2023-01-03T12:35:03.630Z,77.47
2023-01-03T12:38:09.593Z,74.88
2023-01-03T12:41:23.514Z,81.50
2023-01-03T12:44:32.910Z,61.30
2023-01-03T12:47:46.945Z,65.45
2023-01-03T12:50:51.900Z,61.17
2023-01-03T12:53:53.994Z,63.38
2023-01-03T12:57:11.715Z,57.00
2023-01-03T13:00:30.848Z,66.90
2023-01-03T13:03:47.953Z,69.60
2023-01-03T13:06:57.026Z,56.53
2023-01-03T13:10:07.024Z,69.63
2023-01-03T13:13:16.112Z,69.75
2023-01-03T13:16:39.826Z,66.60
2023-01-03T13:19:54.119Z,59.45
2023-01-03T13:22:56.176Z,68.72
2023-01-03T13:26:07.105Z,50.70
2023-01-03T13:29:34.079Z,67.28
2023-01-03T13:32:54.547Z,61.28
2023-01-03T13:36:06.015Z,70.13
2023-01-03T13:39:36.184Z,50.85
2023-01-03T13:42:40.342Z,60.72
2023-01-03T13:45:42.723Z,53.60
2023-01-03T13:48:57.297Z,45.22
2023-01-03T13:51:59.661Z,52.92
2023-01-03T13:55:04.575Z,43.60
2023-01-03T13:58:24.959Z,47.72
2023-01-03T14:01:51.236Z,42.92
2023-01-03T14:05:23.611Z,40.17
2023-01-03T14:08:53.695Z,45.00
2023-01-03T14:12:10.798Z,42.15
2023-01-03T14:15:26.031Z,35.28
2023-01-03T14:18:33.623Z,40.35
2023-01-03T14:21:56.037Z,42.58
2023-01-03T14:25:05.333Z,34.97
2023-01-03T14:28:30.427Z,41.35
2023-01-03T14:31:36.367Z,37.53
2023-01-03T14:34:41.778Z,40.03
2023-01-03T14:37:46.709Z,39.90
2023-01-03T14:40:48.776Z,48.13
2023-01-03T14:43:59.269Z,41.97
2023-01-03T14:47:05.340Z,52.30
2023-01-03T14:50:14.651Z,55.90
2023-01-03T14:53:17.847Z,60.92
2023-01-03T14:56:26.339Z,48.95
2023-01-03T15:02:39.012Z,64.40
2023-01-03T15:05:41.854Z,58.20
2023-01-03T15:08:46.143Z,43.50
2023-01-03T15:11:56.904Z,63.00
2023-01-03T15:15:08.243Z,56.30
2023-01-03T15:18:15.976Z,48.25
2023-01-03T15:21:24.600Z,53.95
2023-01-03T15:24:26.954Z,57.08
2023-01-03T15:27:40.638Z,61.35
2023-01-03T15:30:49.994Z,62.90
2023-01-03T15:34:02.775Z,54.00
2023-01-03T15:37:19.712Z,54.05
2023-01-03T15:40:22.653Z,53.78
2023-01-03T15:43:33.960Z,49.00
2023-01-03T15:46:36.841Z,57.42
2023-01-03T15:49:44.663Z,53.47
2023-01-03T15:52:47.990Z,58.97
2023-01-03T15:55:52.685Z,61.22
2023-01-03T15:58:56.373Z,54.58
2023-01-03T16:01:58.795Z,60.97
2023-01-03T16:05:01.086Z,59.42
2023-01-03T16:08:16.392Z,53.72
2023-01-03T16:11:31.461Z,54.53
2023-01-03T16:14:39.880Z,57.40
2023-01-03T16:17:42.311Z,61.55
2023-01-03T16:20:48.413Z,57.83
2023-01-03T16:23:51.534Z,57.05
2023-01-03T16:26:54.979Z,58.33
2023-01-03T16:29:57.061Z,53.72
2023-01-03T16:32:59.274Z,66.63
2023-01-03T16:36:02.956Z,69.22
2023-01-03T16:39:11.606Z,57.72
2023-01-03T16:42:13.724Z,62.83
2023-01-03T16:45:17.262Z,78.57
2023-01-03T16:48:25.071Z,75.03
2023-01-03T16:51:31.080Z,76.05
2023-01-03T16:54:34.492Z,71.20
2023-01-03T16:57:36.567Z,77.22
2023-01-03T17:00:39.041Z,78.95
2023-01-03T17:03:42.204Z,80.95
2023-01-03T17:06:45.082Z,83.75
2023-01-03T17:09:50.132Z,84.95
2023-01-03T17:12:53.298Z,73.38
2023-01-03T17:15:56.609Z,80.72
2023-01-03T17:18:58.982Z,77.95
2023-01-03T17:22:01.178Z,74.43
2023-01-03T17:25:03.383Z,80.47
2023-01-03T17:28:06.259Z,89.00
2023-01-03T17:31:20.522Z,88.60
2023-01-03T17:34:30.625Z,88.03
2023-01-03T17:37:51.561Z,92.68
2023-01-03T17:40:56.807Z,86.88
2023-01-03T17:43:58.826Z,83.65
2023-01-03T17:47:30.789Z,86.57
2023-01-03T17:50:33.684Z,78.50
2023-01-03T17:53:36.967Z,92.78
2023-01-03T17:56:40.799Z,87.47
2023-01-03T17:59:53.146Z,92.63
2023-01-03T18:02:56.055Z,88.28
2023-01-03T18:06:08.042Z,96.85
2023-01-03T18:09:15.741Z,123.32
2023-01-03T18:12:20.647Z,90.60
2023-01-03T18:15:23.009Z,85.88
2023-01-03T18:18:27.074Z,92.40
2023-01-03T18:21:29.207Z,93.35
2023-01-03T18:24:34.329Z,86.38
2023-01-03T18:27:36.450Z,76.97
2023-01-03T18:30:38.710Z,84.50
2023-01-03T18:33:45.841Z,81.38
2023-01-03T18:36:51.281Z,77.15
2023-01-03T18:39:53.873Z,72.13
2023-01-03T18:43:09.417Z,76.93
2023-01-03T18:46:17.743Z,95.85
2023-01-03T18:49:26.585Z,78.32
2023-01-03T18:52:40.678Z,80.60
2023-01-03T18:55:44.350Z,74.00
2023-01-03T18:58:46.629Z,84.60
2023-01-03T19:01:48.963Z,78.68
2023-01-03T19:04:51.998Z,87.40
2023-01-03T19:07:54.261Z,86.13
2023-01-03T19:11:04.898Z,82.70
2023-01-03T19:14:07.193Z,91.53
2023-01-03T19:17:14.581Z,85.97
2023-01-03T19:20:19.545Z,97.10
2023-01-03T19:23:36.235Z,88.60
2023-01-03T19:26:46.802Z,85.03
2023-01-03T19:29:49.964Z,70.75
2023-01-03T19:32:55.488Z,72.65
2023-01-03T19:35:59.553Z,72.03
2023-01-03T19:39:02.972Z,66.13
2023-01-03T19:42:36.497Z,88.68
2023-01-03T19:45:41.814Z,80.63
2023-01-03T19:48:45.189Z,74.43
2023-01-03T19:51:52.311Z,73.88
2023-01-03T19:54:54.497Z,77.72
2023-01-03T19:57:58.393Z,70.60
2023-01-03T20:01:01.049Z,64.00
2023-01-03T20:04:03.279Z,72.00
2023-01-03T20:07:13.717Z,65.13
2023-01-03T20:10:26.297Z,70.95
2023-01-03T20:13:28.488Z,70.72
2023-01-03T20:16:30.677Z,57.63
2023-01-03T20:19:33.051Z,51.80
2023-01-03T20:23:03.881Z,49.03
2023-01-03T20:25:57.264Z,48.20
2023-01-03T20:29:00.525Z,48.17
2023-01-03T20:32:02.737Z,44.38
2023-01-03T20:35:27.001Z,42.22
2023-01-03T20:38:29.659Z,33.17
2023-01-03T20:41:37.715Z,47.28
2023-01-03T20:44:40.540Z,38.78
2023-01-03T20:47:49.267Z,44.40
2023-01-03T20:50:51.272Z,35.35
2023-01-03T20:53:55.017Z,33.85
2023-01-03T20:56:57.507Z,42.20
2023-01-03T21:00:40.172Z,44.22
2023-01-03T21:07:54.221Z,45.38
2023-01-03T21:10:56.952Z,41.83
2023-01-03T21:14:01.161Z,45.35
2023-01-03T21:17:03.198Z,50.67
2023-01-03T21:20:06.691Z,51.92
2023-01-03T21:23:18.632Z,62.05
2023-01-03T21:26:20.734Z,51.25
2023-01-03T21:29:22.909Z,53.80
2023-01-03T21:32:24.881Z,54.47
2023-01-03T21:35:29.616Z,46.88
2023-01-03T21:38:31.848Z,57.60
2023-01-03T21:41:35.531Z,47.03
2023-01-03T21:44:38.763Z,51.40
2023-01-03T21:47:40.957Z,45.10
2023-01-03T21:50:49.951Z,52.80
2023-01-03T21:53:52.477Z,48.85
2023-01-03T21:56:58.246Z,51.83
2023-01-03T22:00:00.821Z,54.45
2023-01-03T22:03:22.765Z,54.40
2023-01-03T22:06:25.811Z,44.35
2023-01-03T22:09:51.626Z,47.70
2023-01-03T22:13:00.507Z,45.15
2023-01-03T22:16:07.012Z,44.40
2023-01-03T22:19:09.395Z,38.00
2023-01-03T22:22:12.594Z,35.35
2023-01-03T22:25:17.740Z,37.33
2023-01-03T22:28:19.814Z,40.03
2023-01-03T22:31:24.989Z,39.83
2023-01-03T22:34:27.163Z,37.30
2023-01-03T22:37:29.593Z,41.13
2023-01-03T22:40:32.209Z,37.10
2023-01-03T22:43:34.532Z,42.88
2023-01-03T22:46:36.620Z,38.83
2023-01-03T22:49:39.008Z,41.08
2023-01-03T22:52:41.016Z,37.50
2023-01-03T22:55:43.115Z,35.25
2023-01-03T22:58:45.993Z,42.58
2023-01-03T23:01:48.215Z,39.08
2023-01-03T23:04:51.742Z,43.88
2023-01-03T23:07:53.844Z,35.80
2023-01-03T23:11:15.904Z,43.28
2023-01-03T23:14:20.040Z,37.40
2023-01-03T23:17:52.270Z,34.28
2023-01-03T23:20:54.298Z,38.15
2023-01-03T23:23:56.859Z,32.20
2023-01-03T23:26:59.244Z,34.42
2023-01-03T23:30:02.725Z,31.02
2023-01-03T23:33:04.865Z,27.73
2023-01-03T23:36:08.955Z,30.45
2023-01-03T23:39:19.132Z,30.33
2023-01-03T23:42:22.128Z,26.27
2023-01-03T23:45:24.258Z,29.65
2023-01-03T23:48:26.749Z,25.27
2023-01-03T23:51:28.868Z,27.25
2023-01-03T23:54:31.019Z,35.70
2023-01-03T23:57:33.297Z,25.77
